Main page
METAR-TAF:

Airports :

Bauru, São Paulo, Brazil

Bauru Airport

latitude: 22-19S, longitude: 049-04W, elevation: 590 m

Current weather observation

The report was made 1 hour and 15 minutes ago, at 17:00 UTC
Wind 8 kt from the East/Southeast
Temperature 25°C
Humidity 36%
Pressure 1019 hPa
Visibility 10 km or more
no clouds below 1500 m and no cumulonimbus

METAR: SBBU 281700Z 11008KT CAVOK 25/09 Q1019

Time: 15:15 (18:15 UTC)

Forecast

The report was made 7 hours and 45 minutes ago, at 10:30 UTC
Forecast valid from 28 at 12 UTC to 28 at 24 UTC
Wind 12 kt from the East
Visibility 10 km or more
no clouds below 1500 m and no cumulonimbus
Becoming
from 28 at 22 UTC to 28 at 24 UTC
Wind 10 kt from the East/Southeast

TAF: SBBU 281030Z 2812/2824 10012KT CAVOK TN16/2812Z TX28/2818Z BECMG 2822/2824 12010KT RMK PER

METAR-TAF

Weather observations and forecasts of more than 4000 airports (METAR and TAF reports).

The available stations are represented by yellow and red dots on the map.

Hover mouse over dot to see the name of the station.

Then click to see weather observations and forecasts.

To change the map : click on the green buttons with a black cross to zoom in, on the green button with a dash to zoom out, or on the green arrows for adjacent maps.


METAR-TAF: